createdAt,value
2022-12-07T00:01:55.131Z,89.38
2022-12-07T00:04:23.389Z,89.43
2022-12-07T00:06:53.984Z,89.64
2022-12-07T00:09:22.632Z,89.91
2022-12-07T00:11:52.348Z,89.45
2022-12-07T00:14:20.770Z,89.07
2022-12-07T00:16:51.876Z,88.87
2022-12-07T00:19:20.925Z,89.08
2022-12-07T00:21:49.316Z,89.29
2022-12-07T00:24:17.825Z,89.13
2022-12-07T00:26:46.467Z,89.27
2022-12-07T00:29:20.821Z,89.12
2022-12-07T00:31:49.174Z,89.14
2022-12-07T00:34:20.212Z,89.03
2022-12-07T00:36:48.841Z,89.23
2022-12-07T00:39:17.410Z,88.93
2022-12-07T00:41:45.800Z,88.87
2022-12-07T00:44:14.000Z,88.69
2022-12-07T00:46:42.271Z,88.31
2022-12-07T00:49:10.533Z,88.50
2022-12-07T00:51:38.775Z,89.19
2022-12-07T00:54:07.043Z,89.25
2022-12-07T00:56:35.333Z,88.77
2022-12-07T00:59:05.181Z,88.82
2022-12-07T01:01:36.452Z,88.67
2022-12-07T01:04:05.674Z,88.77
2022-12-07T01:06:34.039Z,88.57
2022-12-07T01:09:02.415Z,88.46
2022-12-07T01:11:31.839Z,88.48
2022-12-07T01:14:01.807Z,88.54
2022-12-07T01:16:32.415Z,88.12
2022-12-07T01:19:01.649Z,88.19
2022-12-07T01:21:37.134Z,88.43
2022-12-07T01:24:08.441Z,88.18
2022-12-07T01:26:36.691Z,88.11
2022-12-07T01:29:05.328Z,88.41
2022-12-07T01:31:33.672Z,88.11
2022-12-07T01:34:02.190Z,87.78
2022-12-07T01:36:33.082Z,87.20
2022-12-07T01:39:02.746Z,87.48
2022-12-07T01:41:33.775Z,87.82
2022-12-07T01:44:28.079Z,87.65
2022-12-07T01:47:05.535Z,87.57
2022-12-07T01:49:49.677Z,87.65
2022-12-07T01:52:27.985Z,87.87
2022-12-07T01:55:05.046Z,88.05
2022-12-07T01:57:36.860Z,87.82
2022-12-07T02:00:07.433Z,86.83
2022-12-07T02:03:03.314Z,86.39
2022-12-07T02:05:33.507Z,86.85
2022-12-07T02:08:02.834Z,87.47
2022-12-07T02:10:33.253Z,87.57
2022-12-07T02:13:05.868Z,87.61
2022-12-07T02:15:50.571Z,87.23
2022-12-07T02:18:36.777Z,87.27
2022-12-07T02:21:35.601Z,87.15
2022-12-07T02:24:15.672Z,87.41
2022-12-07T02:27:21.135Z,87.32
2022-12-07T02:30:06.752Z,87.55
2022-12-07T02:32:52.456Z,87.57
2022-12-07T02:35:34.593Z,87.35
2022-12-07T02:38:31.143Z,87.24
2022-12-07T02:41:16.949Z,87.43
2022-12-07T02:43:53.742Z,87.34
2022-12-07T02:46:31.089Z,87.45
2022-12-07T02:49:03.083Z,87.55
2022-12-07T02:51:33.489Z,87.76
2022-12-07T02:54:01.920Z,87.91
2022-12-07T02:56:45.098Z,88.10
2022-12-07T02:59:31.634Z,88.74
2022-12-07T03:02:02.548Z,89.38
2022-12-07T03:04:33.461Z,88.79
2022-12-07T03:07:23.554Z,89.57
2022-12-07T03:10:04.179Z,89.74
2022-12-07T03:12:59.995Z,90.02
2022-12-07T03:15:33.332Z,89.28
2022-12-07T03:18:03.161Z,89.11
2022-12-07T03:20:35.822Z,89.58
2022-12-07T03:23:10.618Z,89.53
2022-12-07T03:25:49.955Z,90.32
2022-12-07T03:28:23.441Z,90.38
2022-12-07T03:31:03.534Z,90.04
2022-12-07T03:33:52.107Z,89.82
2022-12-07T03:36:30.242Z,89.88
2022-12-07T03:39:21.806Z,89.98
2022-12-07T03:41:50.933Z,90.20
2022-12-07T03:44:19.977Z,90.23
2022-12-07T03:47:02.651Z,90.16
2022-12-07T03:49:55.099Z,90.02
2022-12-07T03:52:38.680Z,90.41
2022-12-07T03:55:12.536Z,90.41
2022-12-07T03:57:43.981Z,90.65
2022-12-07T04:00:13.486Z,90.71
2022-12-07T04:02:42.839Z,90.72
2022-12-07T04:05:12.441Z,91.10
2022-12-07T04:07:42.309Z,90.39
2022-12-07T04:10:11.698Z,90.46
2022-12-07T04:12:40.315Z,91.06
2022-12-07T04:15:09.381Z,91.56
2022-12-07T04:17:37.609Z,91.64
2022-12-07T04:20:07.004Z,91.54
2022-12-07T04:22:35.345Z,91.52
2022-12-07T04:25:03.787Z,90.97
2022-12-07T04:27:31.970Z,90.73
2022-12-07T04:30:00.535Z,90.60
2022-12-07T04:32:29.230Z,90.81
2022-12-07T04:34:57.458Z,90.71
2022-12-07T04:37:25.932Z,90.48
2022-12-07T04:39:54.586Z,90.55
2022-12-07T04:42:22.773Z,90.60
2022-12-07T04:44:52.054Z,90.56
2022-12-07T04:47:20.369Z,90.27
2022-12-07T04:49:48.698Z,90.38
2022-12-07T04:52:16.957Z,90.59
2022-12-07T04:54:45.180Z,90.34
2022-12-07T04:57:13.400Z,90.36
2022-12-07T04:59:45.494Z,90.28
2022-12-07T05:02:14.330Z,90.46
2022-12-07T05:04:42.670Z,90.67
2022-12-07T05:07:10.963Z,90.53
2022-12-07T05:09:39.228Z,90.55
2022-12-07T05:12:07.591Z,90.93
2022-12-07T05:14:35.795Z,90.98
2022-12-07T05:17:05.169Z,91.25
2022-12-07T05:19:33.443Z,90.73
2022-12-07T05:22:01.721Z,90.55
2022-12-07T05:24:29.994Z,90.27
2022-12-07T05:26:58.251Z,90.23
2022-12-07T05:29:26.535Z,90.51
2022-12-07T05:31:54.894Z,90.65
2022-12-07T05:34:23.417Z,90.35
2022-12-07T05:36:51.723Z,90.18
2022-12-07T05:39:20.031Z,90.00
2022-12-07T05:42:06.671Z,90.26
2022-12-07T05:44:34.938Z,90.36
2022-12-07T05:47:03.357Z,90.35
2022-12-07T05:49:31.736Z,90.46
2022-12-07T05:52:00.409Z,90.69
2022-12-07T05:54:28.719Z,90.60
2022-12-07T05:56:57.141Z,90.59
2022-12-07T05:59:26.081Z,90.57
2022-12-07T06:01:54.346Z,90.53
2022-12-07T06:04:23.591Z,90.48
2022-12-07T06:06:52.412Z,90.56
2022-12-07T06:09:23.138Z,90.29
2022-12-07T06:12:10.356Z,90.26
2022-12-07T06:14:38.949Z,89.78
2022-12-07T06:17:07.828Z,89.07
2022-12-07T06:19:36.466Z,89.00
2022-12-07T06:22:05.716Z,89.24
2022-12-07T06:24:34.942Z,89.23
2022-12-07T06:27:03.203Z,89.32
2022-12-07T06:29:32.037Z,89.11
2022-12-07T06:32:00.858Z,89.00
2022-12-07T06:34:29.273Z,88.97
2022-12-07T06:36:57.563Z,88.84
2022-12-07T06:39:28.207Z,88.44
2022-12-07T06:41:57.315Z,88.21
2022-12-07T06:44:26.353Z,88.04
2022-12-07T06:47:12.183Z,87.63
2022-12-07T06:49:42.973Z,87.69
2022-12-07T06:52:11.251Z,87.74
2022-12-07T06:54:39.510Z,87.79
2022-12-07T06:57:07.696Z,87.76
2022-12-07T06:59:36.004Z,87.73
2022-12-07T07:02:04.297Z,87.71
2022-12-07T07:04:32.685Z,87.87
2022-12-07T07:07:01.660Z,87.74
2022-12-07T07:09:29.832Z,87.77
2022-12-07T07:12:01.022Z,87.74
2022-12-07T07:14:29.513Z,88.17
2022-12-07T07:16:57.831Z,88.49
2022-12-07T07:19:26.169Z,88.13
2022-12-07T07:21:54.398Z,87.83
2022-12-07T07:24:22.700Z,87.78
2022-12-07T07:26:50.884Z,87.79
2022-12-07T07:29:19.251Z,87.64
2022-12-07T07:31:47.518Z,87.49
2022-12-07T07:34:18.678Z,87.45
2022-12-07T07:36:47.166Z,87.51
2022-12-07T07:39:15.472Z,87.86
2022-12-07T07:41:43.757Z,88.20
2022-12-07T07:44:14.282Z,88.46
2022-12-07T07:46:42.595Z,88.29
2022-12-07T07:49:12.121Z,88.27
2022-12-07T07:51:40.404Z,88.32
2022-12-07T07:54:08.750Z,87.84
2022-12-07T07:56:37.081Z,87.45
2022-12-07T07:59:05.387Z,87.06
2022-12-07T08:01:33.745Z,87.18
2022-12-07T08:04:02.426Z,86.95
2022-12-07T08:06:32.387Z,86.56
2022-12-07T08:09:01.076Z,86.79
2022-12-07T08:11:29.709Z,87.22
2022-12-07T08:13:57.940Z,87.19
2022-12-07T08:16:26.239Z,87.04
2022-12-07T08:18:54.693Z,86.83
2022-12-07T08:21:23.333Z,86.45
2022-12-07T08:23:51.693Z,85.95
2022-12-07T08:26:20.032Z,84.78
2022-12-07T08:28:48.372Z,84.32
2022-12-07T08:31:19.349Z,84.18
2022-12-07T08:33:48.851Z,84.14
2022-12-07T08:36:19.215Z,84.51
2022-12-07T08:39:22.736Z,84.09
2022-12-07T08:41:35.914Z,83.56
2022-12-07T08:44:04.598Z,83.60
2022-12-07T08:46:39.197Z,82.89
2022-12-07T08:49:15.069Z,82.55
2022-12-07T08:51:43.700Z,82.32
2022-12-07T08:54:16.267Z,82.28
2022-12-07T08:56:46.882Z,81.83
2022-12-07T08:59:18.146Z,81.83
2022-12-07T09:01:46.466Z,81.86
2022-12-07T09:04:14.893Z,81.00
2022-12-07T09:06:43.543Z,82.00
2022-12-07T09:09:14.818Z,81.25
2022-12-07T09:11:43.445Z,80.18
2022-12-07T09:14:13.493Z,80.72
2022-12-07T09:16:41.762Z,79.34
2022-12-07T09:19:10.311Z,80.80
2022-12-07T09:21:38.555Z,81.14
2022-12-07T09:24:10.239Z,80.68
2022-12-07T09:26:40.459Z,80.59
2022-12-07T09:29:08.763Z,80.48
2022-12-07T09:31:38.182Z,79.76
2022-12-07T09:34:07.315Z,79.06
2022-12-07T09:36:35.751Z,80.34
2022-12-07T09:39:05.909Z,80.06
2022-12-07T09:41:34.630Z,80.71
2022-12-07T09:44:11.475Z,80.42
2022-12-07T09:46:43.161Z,80.36
2022-12-07T09:49:19.740Z,79.75
2022-12-07T09:51:49.209Z,79.45
2022-12-07T09:54:17.961Z,79.88
2022-12-07T09:56:46.340Z,80.47
2022-12-07T09:59:19.664Z,80.12
2022-12-07T10:01:50.911Z,80.14
2022-12-07T10:04:27.959Z,80.54
2022-12-07T10:06:56.284Z,80.15
2022-12-07T10:09:26.164Z,79.96
2022-12-07T10:12:03.689Z,79.61
2022-12-07T10:15:05.457Z,79.95
2022-12-07T10:17:34.397Z,79.83
2022-12-07T10:20:14.577Z,80.30
2022-12-07T10:22:58.153Z,80.36
2022-12-07T10:25:29.811Z,78.71
2022-12-07T10:28:19.486Z,78.50
2022-12-07T10:31:06.374Z,76.42
2022-12-07T10:34:02.263Z,77.06
2022-12-07T10:36:33.540Z,75.07
2022-12-07T10:39:13.744Z,73.09
2022-12-07T10:42:04.726Z,74.02
2022-12-07T10:44:38.189Z,71.31
2022-12-07T10:47:26.541Z,71.21
2022-12-07T10:50:17.509Z,69.10
2022-12-07T10:53:23.304Z,69.20
2022-12-07T10:56:04.769Z,69.24
2022-12-07T10:58:56.022Z,70.05
2022-12-07T11:01:42.022Z,68.23
2022-12-07T11:04:31.515Z,68.41
2022-12-07T11:07:24.432Z,68.09
2022-12-07T11:10:10.680Z,68.03
2022-12-07T11:13:13.362Z,68.93
2022-12-07T11:16:03.727Z,68.44
2022-12-07T11:19:02.980Z,68.30
2022-12-07T11:21:33.960Z,69.54
2022-12-07T11:24:10.986Z,68.33
2022-12-07T11:26:49.299Z,68.42
2022-12-07T11:29:29.726Z,69.01
2022-12-07T11:32:20.463Z,67.36
2022-12-07T11:34:54.675Z,66.65
2022-12-07T11:37:36.342Z,66.73
2022-12-07T11:40:20.121Z,67.18
2022-12-07T11:43:00.293Z,66.04
2022-12-07T11:45:32.508Z,66.90
2022-12-07T11:48:15.872Z,67.95
2022-12-07T11:50:48.267Z,67.54
2022-12-07T11:53:25.281Z,67.66
2022-12-07T11:56:16.514Z,67.07
2022-12-07T11:58:53.833Z,66.23
2022-12-07T12:01:40.441Z,66.66
2022-12-07T12:04:11.753Z,64.66
2022-12-07T12:06:42.767Z,64.97
2022-12-07T12:15:33.518Z,65.39
2022-12-07T12:18:15.880Z,64.55
2022-12-07T12:20:44.068Z,63.15
2022-12-07T12:23:18.351Z,63.69
2022-12-07T12:25:50.052Z,63.84
2022-12-07T12:28:30.275Z,64.39
2022-12-07T12:31:14.021Z,64.90
2022-12-07T12:33:57.404Z,64.11
2022-12-07T12:36:31.967Z,64.41
2022-12-07T12:39:00.320Z,63.38
2022-12-07T12:42:00.491Z,63.40
2022-12-07T12:44:34.769Z,63.83
2022-12-07T12:47:43.324Z,64.26
2022-12-07T12:50:26.903Z,64.29
2022-12-07T12:53:20.813Z,64.62
2022-12-07T12:56:19.771Z,65.25
2022-12-07T12:58:49.683Z,65.13
2022-12-07T13:01:41.125Z,65.60
2022-12-07T13:04:25.409Z,65.15
2022-12-07T13:06:54.589Z,66.00
2022-12-07T13:09:29.736Z,67.04
2022-12-07T13:12:12.631Z,67.64
2022-12-07T13:15:00.009Z,68.10
2022-12-07T13:17:34.281Z,69.01
2022-12-07T13:20:04.067Z,69.65
2022-12-07T13:22:32.319Z,70.19
2022-12-07T13:25:06.255Z,70.55
2022-12-07T13:27:36.179Z,71.06
2022-12-07T13:30:20.868Z,71.49
2022-12-07T13:32:58.078Z,71.95
2022-12-07T13:35:34.459Z,72.34
2022-12-07T13:38:19.228Z,72.49
2022-12-07T13:41:13.835Z,73.04
2022-12-07T13:44:04.031Z,73.40
2022-12-07T13:46:59.463Z,73.50
2022-12-07T13:49:40.176Z,74.05
2022-12-07T13:52:21.889Z,74.15
2022-12-07T13:55:15.513Z,74.56
2022-12-07T13:57:48.310Z,74.69
2022-12-07T14:00:19.988Z,75.04
2022-12-07T14:03:00.757Z,75.33
2022-12-07T14:05:33.651Z,75.41
2022-12-07T14:08:04.710Z,75.93
2022-12-07T14:10:35.360Z,75.21
2022-12-07T14:13:20.542Z,76.00
2022-12-07T14:15:52.171Z,75.95
2022-12-07T14:18:31.008Z,75.88
2022-12-07T14:21:11.110Z,76.41
2022-12-07T14:23:40.615Z,76.33
2022-12-07T14:26:14.153Z,76.75
2022-12-07T14:28:44.711Z,76.18
2022-12-07T14:31:26.187Z,76.43
2022-12-07T14:34:01.312Z,77.28
2022-12-07T14:36:29.498Z,77.62
2022-12-07T14:38:59.250Z,77.42
2022-12-07T14:41:46.071Z,78.15
2022-12-07T14:44:24.760Z,78.23
2022-12-07T14:49:42.898Z,79.10
2022-12-07T14:55:32.216Z,79.35
2022-12-07T14:58:00.762Z,79.28
2022-12-07T15:00:30.210Z,79.37
2022-12-07T15:02:58.519Z,79.49
2022-12-07T15:05:27.041Z,80.02
2022-12-07T15:07:55.388Z,79.87
2022-12-07T15:10:30.917Z,79.80
2022-12-07T15:13:19.030Z,79.94
2022-12-07T15:15:52.384Z,80.25
2022-12-07T15:18:22.270Z,80.25
2022-12-07T15:20:51.099Z,80.32
2022-12-07T15:23:19.432Z,80.12
2022-12-07T15:25:49.808Z,80.36
2022-12-07T15:28:18.099Z,80.66
2022-12-07T15:30:46.447Z,80.63
2022-12-07T15:33:15.183Z,80.38
2022-12-07T15:35:44.929Z,80.10
2022-12-07T15:38:14.169Z,80.02
2022-12-07T15:40:42.389Z,80.10
2022-12-07T15:43:30.995Z,80.33
2022-12-07T15:46:00.463Z,80.18
2022-12-07T15:48:29.678Z,80.17
2022-12-07T15:51:06.968Z,80.16
2022-12-07T15:53:35.816Z,79.87
2022-12-07T15:56:07.762Z,79.77
2022-12-07T15:58:36.420Z,79.82
2022-12-07T16:01:15.055Z,79.78
2022-12-07T16:03:44.037Z,79.71
2022-12-07T16:06:13.041Z,79.75
2022-12-07T16:08:45.669Z,79.99
2022-12-07T16:11:14.625Z,79.90
2022-12-07T16:13:42.984Z,79.74
2022-12-07T16:16:14.865Z,80.01
2022-12-07T16:18:44.962Z,79.79
2022-12-07T16:21:15.899Z,79.75
2022-12-07T16:23:45.883Z,79.78
2022-12-07T16:26:20.100Z,79.99
2022-12-07T16:28:53.169Z,80.13
2022-12-07T16:31:23.934Z,80.04
2022-12-07T16:33:55.702Z,80.04
2022-12-07T16:36:54.952Z,79.90
2022-12-07T16:39:14.186Z,79.82
2022-12-07T16:41:42.474Z,79.77
2022-12-07T16:44:13.555Z,79.66
2022-12-07T16:46:43.191Z,79.72
2022-12-07T16:49:15.267Z,79.99
2022-12-07T16:51:48.373Z,79.92
2022-12-07T16:54:17.115Z,79.78
2022-12-07T16:56:45.431Z,79.86
2022-12-07T16:59:13.693Z,79.80
2022-12-07T17:01:41.972Z,80.38
2022-12-07T17:04:11.856Z,80.08
2022-12-07T17:06:40.249Z,79.79
2022-12-07T17:09:10.823Z,79.67
2022-12-07T17:11:39.141Z,79.94
2022-12-07T17:14:25.712Z,79.87
2022-12-07T17:16:54.123Z,80.24
2022-12-07T17:19:22.457Z,80.19
2022-12-07T17:21:51.686Z,79.28
2022-12-07T17:24:20.054Z,79.60
2022-12-07T17:26:48.545Z,79.55
2022-12-07T17:29:18.926Z,80.01
2022-12-07T17:31:51.755Z,80.46
2022-12-07T17:34:20.429Z,81.07
2022-12-07T17:36:48.790Z,80.95
2022-12-07T17:39:18.753Z,81.18
2022-12-07T17:42:05.988Z,81.21
2022-12-07T17:44:34.375Z,81.03
2022-12-07T17:47:04.206Z,81.50
2022-12-07T17:49:32.651Z,81.27
2022-12-07T17:52:19.572Z,81.20
2022-12-07T17:54:48.042Z,81.29
2022-12-07T17:57:16.319Z,81.75
2022-12-07T17:59:45.426Z,81.82
2022-12-07T18:02:13.865Z,81.79
2022-12-07T18:04:43.166Z,82.26
2022-12-07T18:07:11.652Z,82.71
2022-12-07T18:09:40.192Z,82.26
2022-12-07T18:12:09.195Z,82.48
2022-12-07T18:14:37.538Z,82.20
2022-12-07T18:17:06.039Z,81.40
2022-12-07T18:19:37.284Z,81.32
2022-12-07T18:22:05.637Z,81.57
2022-12-07T18:24:37.136Z,81.64
2022-12-07T18:27:07.047Z,81.85
2022-12-07T18:29:35.273Z,82.33
2022-12-07T18:32:05.123Z,82.55
2022-12-07T18:34:33.500Z,82.37
2022-12-07T18:37:01.809Z,82.63
2022-12-07T18:39:33.708Z,82.45
2022-12-07T18:42:02.579Z,82.80
2022-12-07T18:44:30.881Z,82.96
2022-12-07T18:46:59.491Z,83.16
2022-12-07T18:49:27.772Z,83.36
2022-12-07T18:51:56.081Z,83.52
2022-12-07T18:54:24.358Z,83.96
2022-12-07T18:56:52.759Z,83.90
2022-12-07T18:59:39.446Z,83.83
2022-12-07T19:02:08.156Z,84.16
2022-12-07T19:04:36.587Z,84.80
2022-12-07T19:07:04.772Z,84.63
2022-12-07T19:09:32.991Z,84.11
2022-12-07T19:12:04.375Z,83.92
2022-12-07T19:14:37.868Z,83.50
2022-12-07T19:17:09.663Z,83.08
2022-12-07T19:19:44.242Z,83.16
2022-12-07T19:22:18.528Z,82.98
2022-12-07T19:24:50.083Z,82.58
2022-12-07T19:27:19.728Z,83.09
2022-12-07T19:29:48.827Z,83.54
2022-12-07T19:32:18.287Z,83.64
2022-12-07T19:34:48.214Z,83.52
2022-12-07T19:37:16.765Z,83.81
2022-12-07T19:39:46.657Z,83.87
2022-12-07T19:42:15.388Z,84.19
2022-12-07T19:44:43.976Z,84.34
2022-12-07T19:47:15.790Z,84.23
2022-12-07T19:49:45.596Z,84.45
2022-12-07T19:52:14.626Z,84.55
2022-12-07T19:54:43.001Z,84.68
2022-12-07T19:57:16.055Z,84.77
2022-12-07T19:59:44.596Z,85.00
2022-12-07T20:02:15.187Z,85.19
2022-12-07T20:04:44.917Z,84.96
2022-12-07T20:07:13.710Z,84.80
2022-12-07T20:09:42.384Z,84.76
2022-12-07T20:12:29.914Z,84.82
2022-12-07T20:14:59.474Z,84.98
2022-12-07T20:17:28.025Z,85.12
2022-12-07T20:19:56.432Z,85.17
2022-12-07T20:22:24.848Z,84.89
2022-12-07T20:24:53.101Z,84.79
2022-12-07T20:27:21.523Z,84.81
2022-12-07T20:29:50.942Z,84.62
2022-12-07T20:32:19.183Z,84.79
2022-12-07T20:34:47.756Z,85.07
2022-12-07T20:37:16.195Z,85.54
2022-12-07T20:39:44.408Z,85.85
2022-12-07T20:42:31.396Z,86.16
2022-12-07T20:45:02.966Z,85.99
2022-12-07T20:47:33.365Z,85.87
2022-12-07T20:50:02.811Z,86.09
2022-12-07T20:52:31.373Z,86.15
2022-12-07T20:54:59.744Z,85.89
2022-12-07T20:57:28.000Z,85.99
2022-12-07T20:59:56.359Z,85.78
2022-12-07T21:02:26.097Z,85.51
2022-12-07T21:04:54.471Z,85.43
2022-12-07T21:07:22.723Z,85.82
2022-12-07T21:09:52.605Z,85.92
2022-12-07T21:12:20.946Z,86.13
2022-12-07T21:14:49.202Z,86.12
2022-12-07T21:17:17.485Z,85.86
2022-12-07T21:19:45.824Z,85.38
2022-12-07T21:22:14.146Z,84.67
2022-12-07T21:24:42.451Z,84.32
2022-12-07T21:27:10.729Z,84.13
2022-12-07T21:29:48.699Z,83.98
2022-12-07T21:32:21.055Z,84.09
2022-12-07T21:34:49.424Z,83.71
2022-12-07T21:37:17.787Z,83.76
2022-12-07T21:39:46.075Z,84.02
2022-12-07T21:42:14.421Z,84.08
2022-12-07T21:44:42.730Z,84.74
2022-12-07T21:47:10.966Z,84.66
2022-12-07T21:49:39.256Z,84.91
2022-12-07T21:52:07.627Z,85.01
2022-12-07T21:54:36.214Z,85.10
2022-12-07T21:57:04.443Z,85.04
2022-12-07T21:59:32.760Z,85.24
2022-12-07T22:02:01.152Z,85.19
2022-12-07T22:04:29.518Z,85.10
2022-12-07T22:06:58.099Z,85.07
2022-12-07T22:09:27.772Z,85.10
2022-12-07T22:11:56.146Z,85.05
2022-12-07T22:14:42.527Z,85.13
2022-12-07T22:17:10.710Z,85.35
2022-12-07T22:19:39.038Z,85.77
2022-12-07T22:22:07.312Z,85.72
2022-12-07T22:24:35.558Z,85.89
2022-12-07T22:27:03.924Z,86.17
2022-12-07T22:29:32.141Z,85.96
2022-12-07T22:32:09.201Z,85.71
2022-12-07T22:34:47.086Z,85.55
2022-12-07T22:37:15.369Z,85.84
2022-12-07T22:39:43.603Z,85.53
2022-12-07T22:42:11.857Z,85.22
2022-12-07T22:44:42.951Z,85.47
2022-12-07T22:47:13.921Z,85.14
2022-12-07T22:49:42.772Z,84.95
2022-12-07T22:52:11.112Z,84.49
2022-12-07T22:54:39.409Z,83.41
2022-12-07T22:57:07.689Z,83.42
2022-12-07T22:59:35.981Z,84.43
2022-12-07T23:02:04.245Z,84.55
2022-12-07T23:04:32.694Z,84.54
2022-12-07T23:07:01.348Z,84.02
2022-12-07T23:09:29.745Z,83.48
2022-12-07T23:12:16.666Z,83.50
2022-12-07T23:14:44.893Z,83.54
2022-12-07T23:17:13.163Z,84.38
2022-12-07T23:19:41.446Z,84.59
2022-12-07T23:22:09.735Z,84.85
2022-12-07T23:24:37.937Z,84.81
2022-12-07T23:27:06.179Z,85.05
2022-12-07T23:29:34.476Z,85.08
2022-12-07T23:32:02.843Z,85.06
2022-12-07T23:34:31.108Z,85.18
2022-12-07T23:36:59.476Z,84.99
2022-12-07T23:39:27.704Z,84.70
2022-12-07T23:41:55.904Z,84.86
2022-12-07T23:44:26.129Z,85.01
2022-12-07T23:46:55.659Z,85.09
2022-12-07T23:49:24.037Z,84.99
2022-12-07T23:51:52.419Z,85.03
2022-12-07T23:54:20.735Z,85.01
2022-12-07T23:56:49.058Z,84.96
2022-12-07T23:59:17.460Z,84.63
